sensor_id;sensor_type;location;lat;lon;timestamp;temperature;humidity
18207;DHT22;9229;52.354;20.886;2022-10-04T00:04:26;10.60;99.90
18207;DHT22;9229;52.354;20.886;2022-10-04T00:09:34;10.60;99.90
18207;DHT22;9229;52.354;20.886;2022-10-04T00:14:38;10.60;99.90
18207;DHT22;9229;52.354;20.886;2022-10-04T00:19:44;10.70;99.90
18207;DHT22;9229;52.354;20.886;2022-10-04T00:25:17;10.60;99.90
18207;DHT22;9229;52.354;20.886;2022-10-04T00:30:22;10.60;99.90
18207;DHT22;9229;52.354;20.886;2022-10-04T00:35:54;10.60;99.90
18207;DHT22;9229;52.354;20.886;2022-10-04T00:41:00;10.60;99.90
18207;DHT22;9229;52.354;20.886;2022-10-04T00:46:09;10.50;99.90
18207;DHT22;9229;52.354;20.886;2022-10-04T00:51:25;10.50;99.90
18207;DHT22;9229;52.354;20.886;2022-10-04T00:56:34;10.50;99.90
18207;DHT22;9229;52.354;20.886;2022-10-04T01:01:39;10.50;99.90
18207;DHT22;9229;52.354;20.886;2022-10-04T01:06:42;10.50;99.90
18207;DHT22;9229;52.354;20.886;2022-10-04T01:11:49;10.50;99.90
18207;DHT22;9229;52.354;20.886;2022-10-04T01:16:58;10.40;99.90
18207;DHT22;9229;52.354;20.886;2022-10-04T01:22:10;10.30;99.90
18207;DHT22;9229;52.354;20.886;2022-10-04T01:27:35;10.20;99.90
18207;DHT22;9229;52.354;20.886;2022-10-04T01:32:38;10.10;99.90
18207;DHT22;9229;52.354;20.886;2022-10-04T01:37:43;10.10;99.90
18207;DHT22;9229;52.354;20.886;2022-10-04T01:42:49;10.10;99.90
18207;DHT22;9229;52.354;20.886;2022-10-04T01:47:55;10.10;99.90
18207;DHT22;9229;52.354;20.886;2022-10-04T01:53:05;10.10;99.90
18207;DHT22;9229;52.354;20.886;2022-10-04T01:58:17;10.00;99.90
18207;DHT22;9229;52.354;20.886;2022-10-04T02:03:23;10.00;99.90
18207;DHT22;9229;52.354;20.886;2022-10-04T02:08:31;9.90;99.90
18207;DHT22;9229;52.354;20.886;2022-10-04T02:13:38;9.90;99.90
18207;DHT22;9229;52.354;20.886;2022-10-04T02:18:41;9.90;99.90
18207;DHT22;9229;52.354;20.886;2022-10-04T02:23:46;9.90;99.90
18207;DHT22;9229;52.354;20.886;2022-10-04T02:28:53;9.80;99.90
18207;DHT22;9229;52.354;20.886;2022-10-04T02:33:56;9.90;99.90
18207;DHT22;9229;52.354;20.886;2022-10-04T02:39:03;9.90;99.90
18207;DHT22;9229;52.354;20.886;2022-10-04T02:44:13;9.80;99.90
18207;DHT22;9229;52.354;20.886;2022-10-04T02:49:22;9.80;99.90
18207;DHT22;9229;52.354;20.886;2022-10-04T02:54:29;9.80;99.90
18207;DHT22;9229;52.354;20.886;2022-10-04T02:59:38;9.80;99.90
18207;DHT22;9229;52.354;20.886;2022-10-04T03:04:42;9.80;99.90
18207;DHT22;9229;52.354;20.886;2022-10-04T03:09:44;9.90;99.90
18207;DHT22;9229;52.354;20.886;2022-10-04T03:14:51;9.90;99.90
18207;DHT22;9229;52.354;20.886;2022-10-04T03:19:53;10.00;99.90
18207;DHT22;9229;52.354;20.886;2022-10-04T03:24:57;10.00;99.90
18207;DHT22;9229;52.354;20.886;2022-10-04T03:30:00;10.00;99.90
18207;DHT22;9229;52.354;20.886;2022-10-04T03:35:05;10.00;99.90
18207;DHT22;9229;52.354;20.886;2022-10-04T03:40:15;10.00;99.90
18207;DHT22;9229;52.354;20.886;2022-10-04T03:45:20;10.00;99.90
18207;DHT22;9229;52.354;20.886;2022-10-04T03:50:25;10.10;99.90
18207;DHT22;9229;52.354;20.886;2022-10-04T03:55:32;10.10;99.90
18207;DHT22;9229;52.354;20.886;2022-10-04T04:00:39;10.00;99.90
18207;DHT22;9229;52.354;20.886;2022-10-04T04:05:47;10.10;99.90
18207;DHT22;9229;52.354;20.886;2022-10-04T04:10:53;10.10;99.90
18207;DHT22;9229;52.354;20.886;2022-10-04T04:15:59;10.10;99.90
18207;DHT22;9229;52.354;20.886;2022-10-04T04:21:03;10.20;99.90
18207;DHT22;9229;52.354;20.886;2022-10-04T04:26:18;10.20;99.90
18207;DHT22;9229;52.354;20.886;2022-10-04T04:31:28;10.20;99.90
18207;DHT22;9229;52.354;20.886;2022-10-04T04:36:37;10.20;99.90
18207;DHT22;9229;52.354;20.886;2022-10-04T04:41:40;10.30;99.90
18207;DHT22;9229;52.354;20.886;2022-10-04T04:46:43;10.30;99.90
18207;DHT22;9229;52.354;20.886;2022-10-04T04:51:48;10.30;99.90
18207;DHT22;9229;52.354;20.886;2022-10-04T04:56:52;10.30;99.90
18207;DHT22;9229;52.354;20.886;2022-10-04T05:01:57;10.30;99.90
18207;DHT22;9229;52.354;20.886;2022-10-04T05:07:01;10.30;99.90
18207;DHT22;9229;52.354;20.886;2022-10-04T05:12:07;10.40;99.90
18207;DHT22;9229;52.354;20.886;2022-10-04T05:17:17;10.40;99.90
18207;DHT22;9229;52.354;20.886;2022-10-04T05:22:21;10.40;99.90
18207;DHT22;9229;52.354;20.886;2022-10-04T05:27:27;10.40;99.90
18207;DHT22;9229;52.354;20.886;2022-10-04T05:32:42;10.50;99.90
18207;DHT22;9229;52.354;20.886;2022-10-04T05:37:54;10.60;99.90
18207;DHT22;9229;52.354;20.886;2022-10-04T05:43:05;10.70;99.90
18207;DHT22;9229;52.354;20.886;2022-10-04T05:48:23;10.70;99.90
18207;DHT22;9229;52.354;20.886;2022-10-04T05:53:31;10.80;99.90
18207;DHT22;9229;52.354;20.886;2022-10-04T05:58:43;10.90;99.90
18207;DHT22;9229;52.354;20.886;2022-10-04T06:04:15;11.00;99.90
18207;DHT22;9229;52.354;20.886;2022-10-04T06:09:36;11.20;99.90
18207;DHT22;9229;52.354;20.886;2022-10-04T06:14:59;11.30;99.90
18207;DHT22;9229;52.354;20.886;2022-10-04T06:20:24;11.50;99.90
18207;DHT22;9229;52.354;20.886;2022-10-04T06:25:37;11.60;99.90
18207;DHT22;9229;52.354;20.886;2022-10-04T06:30:50;11.70;99.90
18207;DHT22;9229;52.354;20.886;2022-10-04T06:36:18;11.70;99.90
18207;DHT22;9229;52.354;20.886;2022-10-04T06:41:41;11.80;99.90
18207;DHT22;9229;52.354;20.886;2022-10-04T06:46:47;11.90;99.90
18207;DHT22;9229;52.354;20.886;2022-10-04T06:52:17;12.00;99.90
18207;DHT22;9229;52.354;20.886;2022-10-04T06:57:46;12.10;99.90
18207;DHT22;9229;52.354;20.886;2022-10-04T07:02:53;12.10;99.90
18207;DHT22;9229;52.354;20.886;2022-10-04T07:08:03;12.20;99.90
18207;DHT22;9229;52.354;20.886;2022-10-04T07:13:15;12.30;99.90
18207;DHT22;9229;52.354;20.886;2022-10-04T07:18:35;12.30;99.90
18207;DHT22;9229;52.354;20.886;2022-10-04T07:23:45;12.30;99.90
18207;DHT22;9229;52.354;20.886;2022-10-04T07:28:54;12.30;99.90
18207;DHT22;9229;52.354;20.886;2022-10-04T07:34:45;12.40;99.90
18207;DHT22;9229;52.354;20.886;2022-10-04T07:39:55;12.40;99.90
18207;DHT22;9229;52.354;20.886;2022-10-04T07:45:04;12.50;99.90
18207;DHT22;9229;52.354;20.886;2022-10-04T07:50:22;12.70;99.90
18207;DHT22;9229;52.354;20.886;2022-10-04T07:55:37;12.80;99.90
18207;DHT22;9229;52.354;20.886;2022-10-04T08:00:53;12.90;99.90
18207;DHT22;9229;52.354;20.886;2022-10-04T08:06:07;12.90;99.90
18207;DHT22;9229;52.354;20.886;2022-10-04T08:11:21;12.90;99.90
18207;DHT22;9229;52.354;20.886;2022-10-04T08:16:33;13.10;99.90
18207;DHT22;9229;52.354;20.886;2022-10-04T08:21:43;13.20;99.90
18207;DHT22;9229;52.354;20.886;2022-10-04T08:27:00;13.50;99.90
18207;DHT22;9229;52.354;20.886;2022-10-04T08:32:20;13.80;99.90
18207;DHT22;9229;52.354;20.886;2022-10-04T08:37:34;14.00;99.90
18207;DHT22;9229;52.354;20.886;2022-10-04T08:43:10;14.00;99.90
18207;DHT22;9229;52.354;20.886;2022-10-04T08:48:53;14.30;99.90
18207;DHT22;9229;52.354;20.886;2022-10-04T08:54:24;14.40;99.90
18207;DHT22;9229;52.354;20.886;2022-10-04T08:59:54;14.60;99.90
18207;DHT22;9229;52.354;20.886;2022-10-04T09:05:17;14.40;99.90
18207;DHT22;9229;52.354;20.886;2022-10-04T09:10:47;14.40;99.90
18207;DHT22;9229;52.354;20.886;2022-10-04T09:15:54;14.80;99.90
18207;DHT22;9229;52.354;20.886;2022-10-04T09:21:05;14.70;99.90
18207;DHT22;9229;52.354;20.886;2022-10-04T09:26:21;14.30;99.90
18207;DHT22;9229;52.354;20.886;2022-10-04T09:42:55;14.20;99.90
18207;DHT22;9229;52.354;20.886;2022-10-04T09:48:23;14.10;99.90
18207;DHT22;9229;52.354;20.886;2022-10-04T09:53:48;14.00;99.90
18207;DHT22;9229;52.354;20.886;2022-10-04T09:59:10;14.10;99.90
18207;DHT22;9229;52.354;20.886;2022-10-04T10:04:31;14.80;99.90
18207;DHT22;9229;52.354;20.886;2022-10-04T10:09:43;15.10;99.90
18207;DHT22;9229;52.354;20.886;2022-10-04T10:15:16;16.30;99.90
18207;DHT22;9229;52.354;20.886;2022-10-04T10:20:32;17.50;99.90
18207;DHT22;9229;52.354;20.886;2022-10-04T10:25:45;17.30;99.90
18207;DHT22;9229;52.354;20.886;2022-10-04T10:31:17;16.70;99.90
18207;DHT22;9229;52.354;20.886;2022-10-04T10:36:44;16.60;99.90
18207;DHT22;9229;52.354;20.886;2022-10-04T10:42:09;16.60;99.90
18207;DHT22;9229;52.354;20.886;2022-10-04T10:47:22;16.90;99.90
18207;DHT22;9229;52.354;20.886;2022-10-04T10:52:58;17.00;99.90
18207;DHT22;9229;52.354;20.886;2022-10-04T10:58:33;17.60;99.90
18207;DHT22;9229;52.354;20.886;2022-10-04T11:03:58;17.60;99.90
18207;DHT22;9229;52.354;20.886;2022-10-04T11:09:26;17.10;99.90
18207;DHT22;9229;52.354;20.886;2022-10-04T11:14:57;16.60;99.90
18207;DHT22;9229;52.354;20.886;2022-10-04T11:20:31;16.30;99.90
18207;DHT22;9229;52.354;20.886;2022-10-04T11:25:55;16.10;99.90
18207;DHT22;9229;52.354;20.886;2022-10-04T11:31:26;16.10;99.90
18207;DHT22;9229;52.354;20.886;2022-10-04T11:36:43;16.80;99.90
18207;DHT22;9229;52.354;20.886;2022-10-04T11:41:52;16.90;99.90
18207;DHT22;9229;52.354;20.886;2022-10-04T11:46:58;17.30;99.90
18207;DHT22;9229;52.354;20.886;2022-10-04T11:58:13;16.70;99.90
18207;DHT22;9229;52.354;20.886;2022-10-04T12:03:34;16.60;99.90
18207;DHT22;9229;52.354;20.886;2022-10-04T12:08:57;16.60;99.90
18207;DHT22;9229;52.354;20.886;2022-10-04T12:14:11;16.50;99.90
18207;DHT22;9229;52.354;20.886;2022-10-04T12:19:58;16.30;99.90
18207;DHT22;9229;52.354;20.886;2022-10-04T12:25:24;16.10;99.90
18207;DHT22;9229;52.354;20.886;2022-10-04T12:36:09;16.10;99.90
18207;DHT22;9229;52.354;20.886;2022-10-04T12:41:35;16.00;99.90
18207;DHT22;9229;52.354;20.886;2022-10-04T12:46:53;15.80;99.90
18207;DHT22;9229;52.354;20.886;2022-10-04T12:52:05;15.70;99.90
18207;DHT22;9229;52.354;20.886;2022-10-04T12:57:31;15.70;99.90
18207;DHT22;9229;52.354;20.886;2022-10-04T13:03:12;16.10;99.90
18207;DHT22;9229;52.354;20.886;2022-10-04T13:08:36;17.20;99.90
18207;DHT22;9229;52.354;20.886;2022-10-04T13:14:15;17.40;99.90
18207;DHT22;9229;52.354;20.886;2022-10-04T13:19:29;16.80;99.90
18207;DHT22;9229;52.354;20.886;2022-10-04T13:24:43;16.30;99.90
18207;DHT22;9229;52.354;20.886;2022-10-04T13:30:03;16.30;99.90
18207;DHT22;9229;52.354;20.886;2022-10-04T13:35:13;16.20;99.90
18207;DHT22;9229;52.354;20.886;2022-10-04T13:40:29;16.20;99.90
18207;DHT22;9229;52.354;20.886;2022-10-04T13:45:47;16.50;99.90
18207;DHT22;9229;52.354;20.886;2022-10-04T13:51:06;16.40;99.90
18207;DHT22;9229;52.354;20.886;2022-10-04T13:56:22;16.30;99.90
18207;DHT22;9229;52.354;20.886;2022-10-04T14:07:36;16.20;99.90
18207;DHT22;9229;52.354;20.886;2022-10-04T14:13:15;16.30;99.90
18207;DHT22;9229;52.354;20.886;2022-10-04T14:19:02;16.20;99.90
18207;DHT22;9229;52.354;20.886;2022-10-04T14:30:12;15.90;99.90
18207;DHT22;9229;52.354;20.886;2022-10-04T14:42:47;15.80;99.90
18207;DHT22;9229;52.354;20.886;2022-10-04T14:54:57;15.50;99.90
18207;DHT22;9229;52.354;20.886;2022-10-04T15:06:36;15.30;99.90
18207;DHT22;9229;52.354;20.886;2022-10-04T15:11:47;15.10;99.90
18207;DHT22;9229;52.354;20.886;2022-10-04T15:16:54;15.10;99.90
18207;DHT22;9229;52.354;20.886;2022-10-04T15:22:05;15.10;99.90
18207;DHT22;9229;52.354;20.886;2022-10-04T15:27:39;15.10;99.90
18207;DHT22;9229;52.354;20.886;2022-10-04T15:33:04;14.80;99.90
18207;DHT22;9229;52.354;20.886;2022-10-04T15:38:18;14.60;99.90
18207;DHT22;9229;52.354;20.886;2022-10-04T15:43:27;14.50;99.90
18207;DHT22;9229;52.354;20.886;2022-10-04T15:48:38;14.30;99.90
18207;DHT22;9229;52.354;20.886;2022-10-04T15:54:02;14.10;99.90
18207;DHT22;9229;52.354;20.886;2022-10-04T16:10:18;13.90;99.90
18207;DHT22;9229;52.354;20.886;2022-10-04T16:15:32;13.80;99.90
18207;DHT22;9229;52.354;20.886;2022-10-04T16:20:49;13.60;99.90
18207;DHT22;9229;52.354;20.886;2022-10-04T16:25:56;13.60;99.90
18207;DHT22;9229;52.354;20.886;2022-10-04T16:36:45;13.10;99.90
18207;DHT22;9229;52.354;20.886;2022-10-04T16:41:53;13.00;99.90
18207;DHT22;9229;52.354;20.886;2022-10-04T16:47:19;12.90;99.90
18207;DHT22;9229;52.354;20.886;2022-10-04T16:52:35;12.70;99.90
18207;DHT22;9229;52.354;20.886;2022-10-04T16:57:43;12.50;99.90
18207;DHT22;9229;52.354;20.886;2022-10-04T17:03:02;12.40;99.90
18207;DHT22;9229;52.354;20.886;2022-10-04T17:08:21;12.20;99.90
18207;DHT22;9229;52.354;20.886;2022-10-04T17:13:27;12.00;99.90
18207;DHT22;9229;52.354;20.886;2022-10-04T17:18:45;11.80;99.90
18207;DHT22;9229;52.354;20.886;2022-10-04T17:24:09;11.60;99.90
18207;DHT22;9229;52.354;20.886;2022-10-04T17:34:57;11.50;99.90
18207;DHT22;9229;52.354;20.886;2022-10-04T17:40:19;11.30;99.90
18207;DHT22;9229;52.354;20.886;2022-10-04T17:45:41;11.10;99.90
18207;DHT22;9229;52.354;20.886;2022-10-04T17:50:54;11.00;99.90
18207;DHT22;9229;52.354;20.886;2022-10-04T17:56:24;11.00;99.90
18207;DHT22;9229;52.354;20.886;2022-10-04T18:01:32;10.90;99.90
18207;DHT22;9229;52.354;20.886;2022-10-04T18:06:40;10.80;99.90
18207;DHT22;9229;52.354;20.886;2022-10-04T18:11:45;10.70;99.90
18207;DHT22;9229;52.354;20.886;2022-10-04T18:16:52;10.60;99.90
18207;DHT22;9229;52.354;20.886;2022-10-04T18:22:03;10.60;99.90
18207;DHT22;9229;52.354;20.886;2022-10-04T18:27:17;10.50;99.90
18207;DHT22;9229;52.354;20.886;2022-10-04T18:32:32;10.40;99.90
18207;DHT22;9229;52.354;20.886;2022-10-04T18:37:37;10.30;99.90
18207;DHT22;9229;52.354;20.886;2022-10-04T18:42:42;10.20;99.90
18207;DHT22;9229;52.354;20.886;2022-10-04T18:47:52;10.10;99.90
18207;DHT22;9229;52.354;20.886;2022-10-04T18:53:35;10.10;99.90
18207;DHT22;9229;52.354;20.886;2022-10-04T18:58:54;10.00;99.90
18207;DHT22;9229;52.354;20.886;2022-10-04T19:04:29;9.90;99.90
18207;DHT22;9229;52.354;20.886;2022-10-04T19:10:00;9.90;99.90
18207;DHT22;9229;52.354;20.886;2022-10-04T19:15:21;9.80;99.90
18207;DHT22;9229;52.354;20.886;2022-10-04T19:20:31;9.70;99.90
18207;DHT22;9229;52.354;20.886;2022-10-04T19:25:45;9.60;99.90
18207;DHT22;9229;52.354;20.886;2022-10-04T19:31:15;9.50;99.90
18207;DHT22;9229;52.354;20.886;2022-10-04T19:36:39;9.50;99.90
18207;DHT22;9229;52.354;20.886;2022-10-04T19:42:02;9.50;99.90
18207;DHT22;9229;52.354;20.886;2022-10-04T19:47:19;9.40;99.90
18207;DHT22;9229;52.354;20.886;2022-10-04T19:52:31;9.40;99.90
18207;DHT22;9229;52.354;20.886;2022-10-04T19:57:40;9.40;99.90
18207;DHT22;9229;52.354;20.886;2022-10-04T20:02:50;9.30;99.90
18207;DHT22;9229;52.354;20.886;2022-10-04T20:07:57;9.20;99.90
18207;DHT22;9229;52.354;20.886;2022-10-04T20:13:16;9.20;99.90
18207;DHT22;9229;52.354;20.886;2022-10-04T20:18:57;9.20;99.90
18207;DHT22;9229;52.354;20.886;2022-10-04T20:24:01;9.10;99.90
18207;DHT22;9229;52.354;20.886;2022-10-04T20:29:07;9.10;99.90
18207;DHT22;9229;52.354;20.886;2022-10-04T20:34:28;9.10;99.90
18207;DHT22;9229;52.354;20.886;2022-10-04T20:40:01;9.00;99.90
18207;DHT22;9229;52.354;20.886;2022-10-04T20:45:24;9.00;99.90
18207;DHT22;9229;52.354;20.886;2022-10-04T20:50:30;8.90;99.90
18207;DHT22;9229;52.354;20.886;2022-10-04T20:55:34;8.90;99.90
18207;DHT22;9229;52.354;20.886;2022-10-04T21:00:50;8.80;99.90
18207;DHT22;9229;52.354;20.886;2022-10-04T21:06:01;8.80;99.90
18207;DHT22;9229;52.354;20.886;2022-10-04T21:11:16;8.70;99.90
18207;DHT22;9229;52.354;20.886;2022-10-04T21:16:50;8.70;99.90
18207;DHT22;9229;52.354;20.886;2022-10-04T21:21:53;8.70;99.90
18207;DHT22;9229;52.354;20.886;2022-10-04T21:27:01;8.70;99.90
18207;DHT22;9229;52.354;20.886;2022-10-04T21:32:05;8.70;99.90
18207;DHT22;9229;52.354;20.886;2022-10-04T21:37:09;8.60;99.90
18207;DHT22;9229;52.354;20.886;2022-10-04T21:42:11;8.60;99.90
18207;DHT22;9229;52.354;20.886;2022-10-04T21:47:14;8.50;99.90
18207;DHT22;9229;52.354;20.886;2022-10-04T21:52:19;8.50;99.90
18207;DHT22;9229;52.354;20.886;2022-10-04T21:57:22;8.40;99.90
18207;DHT22;9229;52.354;20.886;2022-10-04T22:02:25;8.40;99.90
18207;DHT22;9229;52.354;20.886;2022-10-04T22:07:29;8.30;99.90
18207;DHT22;9229;52.354;20.886;2022-10-04T22:12:31;8.20;99.90
18207;DHT22;9229;52.354;20.886;2022-10-04T22:17:34;8.10;99.90
18207;DHT22;9229;52.354;20.886;2022-10-04T22:22:37;8.10;99.90
18207;DHT22;9229;52.354;20.886;2022-10-04T22:27:38;8.00;99.90
18207;DHT22;9229;52.354;20.886;2022-10-04T22:32:42;8.00;99.90
18207;DHT22;9229;52.354;20.886;2022-10-04T22:37:46;8.10;99.90
18207;DHT22;9229;52.354;20.886;2022-10-04T22:42:49;8.00;99.90
18207;DHT22;9229;52.354;20.886;2022-10-04T22:47:55;8.10;99.90
18207;DHT22;9229;52.354;20.886;2022-10-04T22:53:02;8.20;99.90
18207;DHT22;9229;52.354;20.886;2022-10-04T22:58:05;8.10;99.90
18207;DHT22;9229;52.354;20.886;2022-10-04T23:03:25;8.20;99.90
18207;DHT22;9229;52.354;20.886;2022-10-04T23:08:28;8.30;99.90
18207;DHT22;9229;52.354;20.886;2022-10-04T23:13:30;8.20;99.90
18207;DHT22;9229;52.354;20.886;2022-10-04T23:18:34;8.30;99.90
18207;DHT22;9229;52.354;20.886;2022-10-04T23:23:36;8.30;99.90
18207;DHT22;9229;52.354;20.886;2022-10-04T23:28:39;8.30;99.90
18207;DHT22;9229;52.354;20.886;2022-10-04T23:33:44;8.40;99.90
18207;DHT22;9229;52.354;20.886;2022-10-04T23:38:48;8.40;99.90
18207;DHT22;9229;52.354;20.886;2022-10-04T23:43:51;8.40;99.90
18207;DHT22;9229;52.354;20.886;2022-10-04T23:48:55;8.50;99.90
18207;DHT22;9229;52.354;20.886;2022-10-04T23:53:57;8.50;99.90
